createdAt,value
2023-02-14T00:01:46.102Z,19.80
2023-02-14T00:04:14.551Z,18.30
2023-02-14T00:06:44.967Z,19.42
2023-02-14T00:09:15.221Z,20.42
2023-02-14T00:11:44.236Z,18.40
2023-02-14T00:14:31.123Z,20.30
2023-02-14T00:16:59.429Z,20.63
2023-02-14T00:19:27.981Z,23.00
2023-02-14T00:21:57.586Z,21.20
2023-02-14T00:24:27.623Z,19.33
2023-02-14T00:26:55.932Z,20.08
2023-02-14T00:29:25.708Z,18.55
2023-02-14T00:31:54.216Z,19.80
2023-02-14T00:34:22.851Z,17.88
2023-02-14T00:36:51.140Z,20.40
2023-02-14T00:39:21.763Z,22.88
2023-02-14T00:41:50.046Z,19.90
2023-02-14T00:44:18.494Z,20.48
2023-02-14T00:46:46.718Z,19.73
2023-02-14T00:49:14.980Z,20.20
2023-02-14T00:51:43.438Z,19.33
2023-02-14T00:54:11.722Z,20.35
2023-02-14T00:56:41.372Z,18.70
2023-02-14T00:59:09.564Z,19.92
2023-02-14T01:01:37.975Z,20.00
2023-02-14T01:04:06.394Z,18.38
2023-02-14T01:06:35.396Z,20.23
2023-02-14T01:09:04.030Z,18.08
2023-02-14T01:11:32.210Z,16.63
2023-02-14T01:14:02.221Z,17.33
2023-02-14T01:16:31.460Z,16.08
2023-02-14T01:19:00.752Z,15.48
2023-02-14T01:21:31.538Z,17.73
2023-02-14T01:24:01.931Z,17.58
2023-02-14T01:26:31.064Z,18.90
2023-02-14T01:28:59.502Z,24.40
2023-02-14T01:31:32.007Z,18.85
2023-02-14T01:34:00.812Z,22.00
2023-02-14T01:36:30.861Z,20.60
2023-02-14T01:39:02.383Z,20.40
2023-02-14T01:41:33.119Z,21.10
2023-02-14T01:44:03.430Z,22.02
2023-02-14T01:46:34.902Z,20.15
2023-02-14T01:49:10.330Z,23.33
2023-02-14T01:54:09.835Z,19.20
2023-02-14T01:56:41.524Z,24.42
2023-02-14T01:59:14.017Z,17.25
2023-02-14T02:01:44.041Z,22.15
2023-02-14T02:04:17.430Z,21.52
2023-02-14T02:06:50.258Z,21.70
2023-02-14T02:09:24.217Z,20.95
2023-02-14T02:11:52.949Z,22.50
2023-02-14T02:14:23.384Z,19.55
2023-02-14T02:17:06.369Z,24.83
2023-02-14T02:20:25.157Z,21.83
2023-02-14T02:23:31.125Z,17.88
2023-02-14T02:26:39.829Z,18.40
2023-02-14T02:29:57.612Z,26.90
2023-02-14T02:32:47.792Z,22.15
2023-02-14T02:35:39.635Z,18.90
2023-02-14T02:38:27.512Z,19.70
2023-02-14T02:41:05.363Z,19.63
2023-02-14T02:43:44.844Z,20.85
2023-02-14T02:46:36.178Z,19.77
2023-02-14T02:49:13.017Z,17.75
2023-02-14T02:52:24.569Z,19.20
2023-02-14T02:54:56.872Z,19.73
2023-02-14T02:57:28.646Z,20.10
2023-02-14T02:59:58.744Z,20.13
2023-02-14T03:02:31.880Z,19.15
2023-02-14T03:05:03.301Z,16.75
2023-02-14T03:07:37.226Z,20.73
2023-02-14T03:10:10.607Z,19.83
2023-02-14T03:13:04.242Z,17.75
2023-02-14T03:15:42.269Z,17.02
2023-02-14T03:18:17.689Z,19.92
2023-02-14T03:23:24.717Z,18.67
2023-02-14T03:26:03.616Z,17.60
2023-02-14T03:28:39.977Z,19.30
2023-02-14T03:31:16.372Z,18.65
2023-02-14T03:33:51.363Z,20.50
2023-02-14T03:36:24.193Z,21.77
2023-02-14T03:38:59.247Z,21.75
2023-02-14T03:41:33.330Z,20.73
2023-02-14T03:44:04.679Z,17.17
2023-02-14T03:46:38.318Z,18.55
2023-02-14T03:49:11.874Z,19.98
2023-02-14T03:51:41.887Z,20.25
2023-02-14T03:54:15.878Z,17.88
2023-02-14T03:56:49.400Z,19.10
2023-02-14T03:59:22.766Z,20.52
2023-02-14T04:01:56.789Z,18.30
2023-02-14T04:04:29.070Z,19.77
2023-02-14T04:06:57.468Z,20.02
2023-02-14T04:09:27.152Z,19.35
2023-02-14T04:11:55.422Z,20.58
2023-02-14T04:14:25.284Z,18.25
2023-02-14T04:17:10.629Z,17.45
2023-02-14T04:19:38.720Z,17.98
2023-02-14T04:22:06.955Z,17.67
2023-02-14T04:24:36.466Z,20.00
2023-02-14T04:27:13.769Z,17.75
2023-02-14T04:29:43.905Z,19.35
2023-02-14T04:32:14.381Z,18.30
2023-02-14T04:34:43.441Z,19.02
2023-02-14T04:37:11.913Z,18.90
2023-02-14T04:39:41.656Z,16.00
2023-02-14T04:42:10.214Z,16.67
2023-02-14T04:44:39.327Z,18.17
2023-02-14T04:47:08.680Z,17.80
2023-02-14T04:49:37.578Z,16.80
2023-02-14T04:52:06.247Z,18.65
2023-02-14T04:54:34.962Z,16.02
2023-02-14T04:57:04.533Z,19.73
2023-02-14T04:59:32.720Z,18.88
2023-02-14T05:02:01.063Z,17.80
2023-02-14T05:04:29.310Z,17.95
2023-02-14T05:06:57.633Z,18.38
2023-02-14T05:09:25.989Z,15.75
2023-02-14T05:11:54.256Z,14.77
2023-02-14T05:14:24.034Z,17.20
2023-02-14T05:16:52.284Z,18.50
2023-02-14T05:19:20.615Z,17.25
2023-02-14T05:21:48.821Z,16.90
2023-02-14T05:24:17.293Z,14.38
2023-02-14T05:26:45.653Z,16.08
2023-02-14T05:29:14.294Z,15.07
2023-02-14T05:31:44.011Z,15.00
2023-02-14T05:34:12.406Z,15.82
2023-02-14T05:36:40.864Z,15.75
2023-02-14T05:39:09.096Z,17.27
2023-02-14T05:44:05.228Z,13.25
2023-02-14T05:46:33.412Z,13.50
2023-02-14T05:49:03.202Z,15.05
2023-02-14T05:51:31.455Z,16.70
2023-02-14T05:54:01.144Z,14.68
2023-02-14T05:56:29.391Z,14.55
2023-02-14T05:58:57.687Z,14.75
2023-02-14T06:01:25.874Z,14.65
2023-02-14T06:03:54.107Z,12.88
2023-02-14T06:06:23.665Z,16.10
2023-02-14T06:08:51.947Z,13.85
2023-02-14T06:11:20.137Z,15.25
2023-02-14T06:13:48.432Z,14.15
2023-02-14T06:16:16.586Z,14.68
2023-02-14T06:18:45.445Z,14.18
2023-02-14T06:21:13.642Z,14.32
2023-02-14T06:23:43.234Z,12.73
2023-02-14T06:26:11.508Z,14.18
2023-02-14T06:28:39.955Z,14.73
2023-02-14T06:31:08.477Z,13.93
2023-02-14T06:33:36.860Z,13.85
2023-02-14T06:36:05.400Z,13.77
2023-02-14T06:38:33.598Z,14.57
2023-02-14T06:41:06.275Z,14.88
2023-02-14T06:43:35.446Z,15.52
2023-02-14T06:46:04.207Z,15.63
2023-02-14T06:48:32.505Z,14.63
2023-02-14T06:51:01.090Z,15.13
2023-02-14T06:53:29.731Z,18.13
2023-02-14T06:55:58.397Z,15.95
2023-02-14T06:58:28.124Z,12.32
2023-02-14T07:00:56.666Z,12.35
2023-02-14T07:03:24.944Z,14.80
2023-02-14T07:05:53.690Z,13.48
2023-02-14T07:08:24.163Z,12.82
2023-02-14T07:10:58.113Z,12.98
2023-02-14T07:13:28.264Z,13.93
2023-02-14T07:15:56.524Z,15.13
2023-02-14T07:18:24.997Z,13.35
2023-02-14T07:20:53.497Z,12.90
2023-02-14T07:23:21.860Z,14.07
2023-02-14T07:25:50.297Z,16.30
2023-02-14T07:28:18.455Z,16.02
2023-02-14T07:30:48.163Z,16.90
2023-02-14T07:33:44.548Z,16.27
2023-02-14T07:38:41.109Z,17.63
2023-02-14T07:41:09.626Z,19.77
2023-02-14T07:43:39.686Z,23.30
2023-02-14T07:46:09.745Z,21.73
2023-02-14T07:48:39.668Z,25.27
2023-02-14T07:51:07.986Z,30.73
2023-02-14T07:53:36.204Z,27.13
2023-02-14T07:56:04.356Z,27.92
2023-02-14T07:58:32.926Z,27.15
2023-02-14T08:01:01.847Z,25.27
2023-02-14T08:03:33.653Z,24.73
2023-02-14T08:06:01.936Z,23.88
2023-02-14T08:08:32.109Z,23.67
2023-02-14T08:11:02.132Z,22.00
2023-02-14T08:13:30.834Z,22.77
2023-02-14T08:16:06.149Z,22.88
2023-02-14T08:21:04.658Z,23.77
2023-02-14T08:23:33.229Z,23.42
2023-02-14T08:26:01.832Z,24.60
2023-02-14T08:28:32.421Z,24.98
2023-02-14T08:31:01.329Z,23.92
2023-02-14T08:33:30.322Z,25.20
2023-02-14T08:35:58.620Z,23.75
2023-02-14T08:38:28.632Z,25.02
2023-02-14T08:41:00.638Z,24.27
2023-02-14T08:43:29.466Z,25.42
2023-02-14T08:45:58.452Z,24.75
2023-02-14T08:48:27.197Z,24.75
2023-02-14T08:50:55.449Z,24.15
2023-02-14T08:53:23.698Z,25.50
2023-02-14T08:55:53.290Z,24.55
2023-02-14T08:58:21.587Z,25.17
2023-02-14T09:00:49.874Z,25.63
2023-02-14T09:03:18.234Z,26.17
2023-02-14T09:05:46.394Z,25.73
2023-02-14T09:08:14.925Z,26.02
2023-02-14T09:10:48.887Z,26.60
2023-02-14T09:13:18.525Z,26.50
2023-02-14T09:15:46.813Z,25.60
2023-02-14T09:18:16.159Z,25.65
2023-02-14T09:20:45.928Z,25.60
2023-02-14T09:23:14.163Z,25.48
2023-02-14T09:25:42.660Z,27.02
2023-02-14T09:28:11.208Z,26.08
2023-02-14T09:30:40.793Z,26.10
2023-02-14T09:33:09.370Z,26.20
2023-02-14T09:35:37.975Z,26.38
2023-02-14T09:38:05.622Z,26.42
2023-02-14T09:40:34.611Z,24.60
2023-02-14T09:43:09.910Z,24.95
2023-02-14T09:45:41.044Z,25.00
2023-02-14T09:48:16.642Z,24.15
2023-02-14T09:50:49.913Z,25.08
2023-02-14T09:53:22.850Z,24.40
2023-02-14T09:55:55.872Z,22.55
2023-02-14T09:58:27.968Z,23.92
2023-02-14T10:01:01.341Z,22.23
2023-02-14T10:03:53.988Z,24.77
2023-02-14T10:06:33.535Z,21.67
2023-02-14T10:09:04.983Z,23.98
2023-02-14T10:11:33.605Z,22.13
2023-02-14T10:14:06.190Z,21.98
2023-02-14T10:16:40.030Z,23.33
2023-02-14T10:19:19.810Z,23.38
2023-02-14T10:21:51.163Z,22.83
2023-02-14T10:24:21.779Z,22.67
2023-02-14T10:26:51.331Z,22.20
2023-02-14T10:29:22.173Z,20.75
2023-02-14T10:31:58.810Z,21.77
2023-02-14T10:34:32.725Z,21.05
2023-02-14T10:37:06.756Z,21.70
2023-02-14T10:39:41.119Z,21.30
2023-02-14T10:42:17.230Z,21.20
2023-02-14T10:44:49.731Z,20.77
2023-02-14T10:47:39.731Z,20.27
2023-02-14T10:50:13.124Z,22.05
2023-02-14T10:52:47.138Z,22.40
2023-02-14T10:55:32.083Z,20.13
2023-02-14T10:58:04.185Z,21.67
2023-02-14T11:00:34.295Z,21.38
2023-02-14T11:03:08.205Z,18.58
2023-02-14T11:05:37.913Z,22.20
2023-02-14T11:08:15.422Z,20.00
2023-02-14T11:10:44.412Z,21.60
2023-02-14T11:13:27.687Z,21.35
2023-02-14T11:15:56.336Z,22.98
2023-02-14T11:18:31.984Z,21.77
2023-02-14T11:21:10.034Z,21.33
2023-02-14T11:23:42.218Z,21.80
2023-02-14T11:26:18.044Z,22.58
2023-02-14T11:28:53.411Z,22.10
2023-02-14T11:31:31.318Z,23.58
2023-02-14T11:34:04.832Z,22.15
2023-02-14T11:36:41.350Z,19.85
2023-02-14T11:39:22.324Z,22.15
2023-02-14T11:41:52.008Z,21.80
2023-02-14T11:44:23.593Z,21.42
2023-02-14T11:46:53.675Z,25.58
2023-02-14T11:49:33.435Z,22.00
2023-02-14T11:52:11.171Z,22.52
2023-02-14T11:54:41.909Z,22.10
2023-02-14T11:57:15.285Z,20.42
2023-02-14T11:59:46.904Z,19.83
2023-02-14T12:02:25.334Z,21.60
2023-02-14T12:04:58.239Z,23.05
2023-02-14T12:07:28.894Z,20.73
2023-02-14T12:10:17.754Z,18.60
2023-02-14T12:13:00.993Z,21.65
2023-02-14T12:15:37.920Z,20.27
2023-02-14T12:18:40.500Z,20.10
2023-02-14T12:21:21.833Z,18.98
2023-02-14T12:24:00.153Z,20.77
2023-02-14T12:26:33.175Z,18.30
2023-02-14T12:29:07.354Z,19.35
2023-02-14T12:31:35.614Z,19.80
2023-02-14T12:34:04.773Z,17.98
2023-02-14T12:37:05.024Z,18.67
2023-02-14T12:39:39.310Z,19.17
2023-02-14T12:42:23.665Z,16.42
2023-02-14T12:44:59.925Z,18.40
2023-02-14T12:47:37.850Z,18.23
2023-02-14T12:50:24.696Z,19.48
2023-02-14T12:53:22.608Z,18.33
2023-02-14T12:56:01.204Z,19.95
2023-02-14T12:58:47.714Z,18.58
2023-02-14T13:01:39.196Z,15.55
2023-02-14T13:04:41.063Z,18.23
2023-02-14T13:07:18.817Z,18.77
2023-02-14T13:09:53.309Z,18.15
2023-02-14T13:12:36.210Z,17.17
2023-02-14T13:15:20.556Z,17.42
2023-02-14T13:17:53.832Z,19.90
2023-02-14T13:20:36.707Z,17.27
2023-02-14T13:23:07.919Z,18.23
2023-02-14T13:25:41.920Z,18.08
2023-02-14T13:28:14.973Z,18.50
2023-02-14T13:30:43.270Z,18.10
2023-02-14T13:33:29.326Z,19.27
2023-02-14T13:36:01.975Z,18.40
2023-02-14T13:38:32.306Z,18.85
2023-02-14T13:41:02.959Z,19.30
2023-02-14T13:43:48.762Z,19.58
2023-02-14T13:46:19.479Z,18.30
2023-02-14T13:48:59.606Z,16.40
2023-02-14T13:51:45.247Z,18.65
2023-02-14T13:54:30.985Z,17.85
2023-02-14T13:59:31.422Z,18.38
2023-02-14T14:02:32.967Z,16.73
2023-02-14T14:05:01.198Z,16.90
2023-02-14T14:07:31.454Z,18.23
2023-02-14T14:10:02.642Z,19.20
2023-02-14T14:12:52.265Z,16.27
2023-02-14T14:15:22.040Z,17.70
2023-02-14T14:18:29.214Z,18.42
2023-02-14T14:20:58.685Z,17.30
2023-02-14T14:23:37.299Z,14.95
2023-02-14T14:26:30.980Z,17.30
2023-02-14T14:28:59.961Z,16.55
2023-02-14T14:31:30.282Z,19.10
2023-02-14T14:34:02.970Z,16.65
2023-02-14T14:36:31.233Z,17.27
2023-02-14T14:38:59.422Z,16.42
2023-02-14T14:41:31.312Z,15.50
2023-02-14T14:44:00.962Z,15.63
2023-02-14T14:46:30.680Z,16.98
2023-02-14T14:48:59.245Z,17.65
2023-02-14T14:51:30.456Z,16.35
2023-02-14T14:54:01.278Z,15.07
2023-02-14T14:56:32.144Z,17.77
2023-02-14T14:59:17.864Z,16.02
2023-02-14T15:01:47.992Z,17.83
2023-02-14T15:04:19.981Z,17.77
2023-02-14T15:06:49.814Z,15.70
2023-02-14T15:09:23.781Z,17.58
2023-02-14T15:12:12.158Z,17.83
2023-02-14T15:14:43.707Z,17.52
2023-02-14T15:17:20.183Z,16.13
2023-02-14T15:19:51.656Z,15.63
2023-02-14T15:22:22.660Z,15.90
2023-02-14T15:24:51.950Z,18.25
2023-02-14T15:27:23.389Z,18.42
2023-02-14T15:29:56.678Z,17.40
2023-02-14T15:32:27.381Z,16.60
2023-02-14T15:34:57.136Z,17.60
2023-02-14T15:37:26.422Z,19.10
2023-02-14T15:39:57.174Z,16.45
2023-02-14T15:42:29.427Z,17.25
2023-02-14T15:45:16.139Z,16.25
2023-02-14T15:47:47.822Z,16.83
2023-02-14T15:50:19.253Z,16.27
2023-02-14T15:52:49.013Z,15.50
2023-02-14T15:55:20.430Z,16.73
2023-02-14T15:57:55.477Z,17.65
2023-02-14T16:00:25.229Z,17.13
2023-02-14T16:02:58.125Z,16.50
2023-02-14T16:05:28.430Z,16.00
2023-02-14T16:07:58.750Z,16.38
2023-02-14T16:10:28.154Z,16.02
2023-02-14T16:12:59.492Z,17.17
2023-02-14T16:15:29.919Z,15.40
2023-02-14T16:18:01.127Z,15.45
2023-02-14T16:20:42.184Z,17.50
2023-02-14T16:23:23.276Z,16.17
2023-02-14T16:25:52.075Z,17.85
2023-02-14T16:28:20.998Z,19.42
2023-02-14T16:30:54.816Z,19.02
2023-02-14T16:33:27.616Z,18.33
2023-02-14T16:35:58.570Z,18.40
2023-02-14T16:38:27.100Z,18.65
2023-02-14T16:40:55.578Z,17.60
2023-02-14T16:43:23.866Z,17.40
2023-02-14T16:45:52.087Z,16.30
2023-02-14T16:48:20.287Z,16.27
2023-02-14T16:50:50.199Z,15.65
2023-02-14T16:53:26.379Z,14.70
2023-02-14T16:55:56.696Z,13.45
2023-02-14T16:58:29.426Z,13.18
2023-02-14T17:00:58.897Z,14.30
2023-02-14T17:03:27.359Z,14.50
2023-02-14T17:05:59.413Z,14.90
2023-02-14T17:08:28.188Z,13.45
2023-02-14T17:10:58.782Z,13.00
2023-02-14T17:13:28.843Z,13.60
2023-02-14T17:15:57.861Z,13.10
2023-02-14T17:18:26.832Z,14.18
2023-02-14T17:20:55.790Z,13.07
2023-02-14T17:23:25.430Z,14.23
2023-02-14T17:25:54.092Z,12.68
2023-02-14T17:28:22.385Z,13.43
2023-02-14T17:30:50.761Z,15.20
2023-02-14T17:33:20.023Z,15.05
2023-02-14T17:35:48.566Z,13.95
2023-02-14T17:38:16.818Z,13.02
2023-02-14T17:40:46.657Z,14.35
2023-02-14T17:43:15.111Z,14.80
2023-02-14T17:45:43.392Z,14.75
2023-02-14T17:48:11.891Z,13.95
2023-02-14T17:50:40.305Z,14.98
2023-02-14T17:53:09.576Z,15.23
2023-02-14T17:55:37.982Z,15.02
2023-02-14T17:58:07.652Z,14.15
2023-02-14T18:00:35.806Z,19.65
2023-02-14T18:03:04.184Z,17.92
2023-02-14T18:05:32.695Z,14.77
2023-02-14T18:08:00.995Z,15.27
2023-02-14T18:10:29.262Z,17.10
2023-02-14T18:12:59.840Z,15.02
2023-02-14T18:15:29.660Z,17.98
2023-02-14T18:17:58.233Z,15.55
2023-02-14T18:20:26.408Z,17.60
2023-02-14T18:22:54.551Z,17.58
2023-02-14T18:25:22.771Z,17.30
2023-02-14T18:27:51.235Z,17.05
2023-02-14T18:30:20.003Z,15.85
2023-02-14T18:32:49.628Z,16.88
2023-02-14T18:35:17.995Z,17.15
2023-02-14T18:37:46.227Z,16.70
2023-02-14T18:40:20.366Z,18.55
2023-02-14T18:42:48.615Z,19.25
2023-02-14T18:45:17.484Z,14.82
2023-02-14T18:47:45.646Z,16.35
2023-02-14T18:50:15.504Z,15.35
2023-02-14T18:52:44.632Z,16.83
2023-02-14T18:55:13.496Z,16.92
2023-02-14T18:57:41.886Z,15.70
2023-02-14T19:00:12.164Z,16.50
2023-02-14T19:02:40.483Z,16.60
2023-02-14T19:05:09.614Z,20.25
2023-02-14T19:07:39.496Z,17.48
2023-02-14T19:10:09.524Z,18.42
2023-02-14T19:12:37.785Z,18.08
2023-02-14T19:15:07.312Z,16.90
2023-02-14T19:17:36.234Z,19.00
2023-02-14T19:20:08.702Z,17.42
2023-02-14T19:22:40.461Z,17.52
2023-02-14T19:25:09.473Z,16.88
2023-02-14T19:27:38.401Z,18.13
2023-02-14T19:30:07.935Z,17.55
2023-02-14T19:32:38.635Z,16.13
2023-02-14T19:35:07.663Z,17.33
2023-02-14T19:37:36.020Z,20.95
2023-02-14T19:40:10.324Z,20.42
2023-02-14T19:42:38.545Z,19.23
2023-02-14T19:45:07.781Z,23.73
2023-02-14T19:47:46.696Z,25.50
2023-02-14T19:50:15.729Z,21.80
2023-02-14T19:52:44.699Z,20.80
2023-02-14T19:55:22.692Z,18.98
2023-02-14T19:57:51.175Z,20.80
2023-02-14T20:00:21.045Z,21.08
2023-02-14T20:02:49.907Z,20.75
2023-02-14T20:05:19.131Z,20.20
2023-02-14T20:07:49.248Z,18.98
2023-02-14T20:10:19.109Z,20.08
2023-02-14T20:12:48.019Z,27.52
2023-02-14T20:15:16.304Z,26.42
2023-02-14T20:17:44.948Z,19.20
2023-02-14T20:20:13.999Z,20.75
2023-02-14T20:22:42.388Z,22.25
2023-02-14T20:25:11.333Z,22.27
2023-02-14T20:27:41.218Z,22.92
2023-02-14T20:30:10.723Z,21.63
2023-02-14T20:32:39.076Z,22.75
2023-02-14T20:35:07.639Z,22.33
2023-02-14T20:37:36.423Z,20.73
2023-02-14T20:40:04.929Z,21.33
2023-02-14T20:42:33.100Z,20.65
2023-02-14T20:45:02.966Z,20.60
2023-02-14T20:47:31.207Z,23.55
2023-02-14T20:49:59.888Z,25.80
2023-02-14T20:52:28.417Z,20.25
2023-02-14T20:54:56.768Z,18.63
2023-02-14T20:57:25.534Z,17.13
2023-02-14T20:59:53.740Z,19.25
2023-02-14T21:02:23.395Z,18.33
2023-02-14T21:04:51.714Z,19.08
2023-02-14T21:07:19.939Z,22.75
2023-02-14T21:09:48.246Z,20.05
2023-02-14T21:12:16.720Z,22.20
2023-02-14T21:14:45.104Z,21.05
2023-02-14T21:17:13.607Z,20.80
2023-02-14T21:19:43.169Z,21.55
2023-02-14T21:22:11.374Z,21.15
2023-02-14T21:24:39.640Z,19.77
2023-02-14T21:27:07.934Z,20.77
2023-02-14T21:29:36.181Z,23.42
2023-02-14T21:32:06.523Z,21.88
2023-02-14T21:34:37.069Z,20.98
2023-02-14T21:37:08.519Z,19.73
2023-02-14T21:39:38.086Z,20.52
2023-02-14T21:42:07.604Z,19.60
2023-02-14T21:44:53.691Z,19.80
2023-02-14T21:47:21.888Z,20.98
2023-02-14T21:50:07.393Z,22.05
2023-02-14T21:52:37.111Z,22.02
2023-02-14T21:55:05.532Z,24.98
2023-02-14T21:57:34.137Z,23.63
2023-02-14T22:00:02.495Z,23.13
2023-02-14T22:02:31.072Z,25.33
2023-02-14T22:05:01.085Z,26.98
2023-02-14T22:07:29.504Z,25.92
2023-02-14T22:09:59.163Z,23.88
2023-02-14T22:12:27.281Z,22.85
2023-02-14T22:14:55.560Z,24.38
2023-02-14T22:17:23.784Z,23.88
2023-02-14T22:19:52.030Z,22.02
2023-02-14T22:22:20.315Z,22.60
2023-02-14T22:24:48.436Z,24.05
2023-02-14T22:27:18.120Z,30.60
2023-02-14T22:29:46.510Z,28.38
2023-02-14T22:32:14.823Z,25.20
2023-02-14T22:34:43.092Z,24.27
2023-02-14T22:37:11.292Z,22.38
2023-02-14T22:39:39.815Z,23.65
2023-02-14T22:42:10.118Z,24.75
2023-02-14T22:44:41.629Z,23.77
2023-02-14T22:47:09.857Z,24.40
2023-02-14T22:49:38.032Z,23.55
2023-02-14T22:52:06.619Z,23.73
2023-02-14T22:54:36.194Z,22.27
2023-02-14T22:57:04.535Z,26.30
2023-02-14T22:59:34.181Z,24.63
2023-02-14T23:02:05.197Z,24.98
2023-02-14T23:04:33.403Z,20.50
2023-02-14T23:07:03.022Z,22.83
2023-02-14T23:09:34.319Z,26.25
2023-02-14T23:12:25.508Z,24.05
2023-02-14T23:15:13.910Z,23.55
2023-02-14T23:18:02.247Z,23.77
2023-02-14T23:20:50.361Z,24.58
2023-02-14T23:23:19.823Z,23.42
2023-02-14T23:25:48.106Z,22.90
2023-02-14T23:28:17.483Z,24.42
2023-02-14T23:30:45.731Z,27.10
2023-02-14T23:33:15.403Z,27.90
2023-02-14T23:35:43.739Z,24.15
2023-02-14T23:38:13.044Z,24.58
2023-02-14T23:40:56.258Z,24.83
2023-02-14T23:43:24.497Z,24.13
2023-02-14T23:45:52.818Z,26.35
2023-02-14T23:48:22.580Z,26.48
2023-02-14T23:50:50.893Z,25.30
2023-02-14T23:53:19.889Z,28.33
2023-02-14T23:55:49.432Z,28.83
2023-02-14T23:58:19.077Z,29.55
